createdAt,value
2019-05-07T07:28:32.902Z,57.97
2019-05-07T07:31:23.375Z,54.50
2019-05-07T07:33:53.344Z,55.00
2019-05-07T07:36:24.259Z,56.76
2019-05-07T07:38:53.480Z,55.12
2019-05-07T07:41:29.579Z,56.10
2019-05-07T07:44:02.078Z,55.05
2019-05-07T07:46:33.048Z,53.99
2019-05-07T07:49:10.731Z,52.51
2019-05-07T07:51:41.476Z,52.50
2019-05-07T07:54:03.832Z,54.40
2019-05-07T07:56:50.153Z,54.66
2019-05-07T07:59:28.070Z,54.24
2019-05-07T08:02:04.101Z,54.21
2019-05-07T08:04:33.264Z,53.23
2019-05-07T08:07:05.476Z,52.05
2019-05-07T08:09:35.561Z,52.22
2019-05-07T08:12:05.979Z,53.48
2019-05-07T08:14:35.241Z,51.54
2019-05-07T08:17:07.996Z,49.97
2019-05-07T08:19:37.218Z,50.66
2019-05-07T08:22:06.364Z,51.28
2019-05-07T08:24:35.537Z,50.88
2019-05-07T08:27:04.746Z,50.70
2019-05-07T08:29:33.918Z,51.01
2019-05-07T08:32:28.454Z,51.56
2019-05-07T08:35:14.282Z,51.77
2019-05-07T08:37:43.542Z,52.08
2019-05-07T08:40:12.991Z,51.79
2019-05-07T08:42:42.192Z,51.73
2019-05-07T08:45:28.927Z,51.10
2019-05-07T08:48:02.076Z,50.92
2019-05-07T08:50:32.659Z,50.76
2019-05-07T08:53:02.755Z,51.03
2019-05-07T08:55:32.342Z,50.41
2019-05-07T08:58:02.231Z,50.73
2019-05-07T09:00:32.555Z,51.38
2019-05-07T09:03:01.922Z,50.79
2019-05-07T09:05:32.948Z,50.17
2019-05-07T09:08:02.370Z,50.47
2019-05-07T09:10:32.451Z,52.69
2019-05-07T09:13:03.154Z,52.92
2019-05-07T09:15:32.396Z,52.61
2019-05-07T09:18:02.120Z,53.55
2019-05-07T09:20:32.221Z,53.35
2019-05-07T09:23:02.156Z,54.48
2019-05-07T09:25:33.646Z,51.87
2019-05-07T09:28:03.722Z,51.99
2019-05-07T09:31:03.777Z,51.62
2019-05-07T09:33:52.228Z,50.57
2019-05-07T09:36:26.853Z,49.48
2019-05-07T09:38:59.018Z,49.55
2019-05-07T09:41:29.734Z,48.06
2019-05-07T09:43:59.125Z,48.49
2019-05-07T09:46:28.302Z,47.36
2019-05-07T09:48:57.850Z,48.25
2019-05-07T09:51:27.030Z,46.89
2019-05-07T09:53:56.224Z,47.86
2019-05-07T09:56:25.363Z,46.42
2019-05-07T09:58:54.516Z,45.58
2019-05-07T10:01:23.796Z,46.02
2019-05-07T10:03:53.067Z,46.38
2019-05-07T10:06:22.937Z,46.72
2019-05-07T10:08:52.431Z,48.12
2019-05-07T10:11:32.919Z,46.13
2019-05-07T10:14:06.000Z,46.84
2019-05-07T10:16:52.386Z,45.90
2019-05-07T10:19:22.251Z,46.24
2019-05-07T10:21:52.930Z,47.03
2019-05-07T10:24:22.351Z,46.43
2019-05-07T10:26:53.066Z,46.40
2019-05-07T10:29:22.793Z,46.42
2019-05-07T10:31:52.755Z,44.71
2019-05-07T10:34:22.840Z,43.22
2019-05-07T10:36:52.411Z,44.83
2019-05-07T10:39:22.086Z,45.39
2019-05-07T10:41:51.276Z,45.96
2019-05-07T10:44:22.915Z,45.79
2019-05-07T10:47:09.660Z,45.11
2019-05-07T10:49:49.510Z,46.01
2019-05-07T10:52:18.685Z,46.84
2019-05-07T10:54:59.520Z,44.71
2019-05-07T10:57:18.774Z,44.01
2019-05-07T10:59:48.060Z,43.87
2019-05-07T11:02:22.359Z,44.37
2019-05-07T11:04:53.226Z,45.10
2019-05-07T11:07:22.479Z,45.24
2019-05-07T11:09:52.494Z,44.07
2019-05-07T11:12:22.907Z,44.48
2019-05-07T11:14:52.333Z,44.01
2019-05-07T11:17:49.274Z,46.56
2019-05-07T11:20:19.455Z,45.58
2019-05-07T11:22:52.042Z,45.00
2019-05-07T11:25:22.535Z,45.32
2019-05-07T11:27:52.382Z,44.74
2019-05-07T11:30:22.814Z,43.25
2019-05-07T11:32:52.403Z,43.91
2019-05-07T11:35:24.717Z,44.02
2019-05-07T11:37:54.027Z,44.49
2019-05-07T11:40:23.621Z,44.20
2019-05-07T11:43:12.902Z,43.08
2019-05-07T11:45:54.350Z,43.38
2019-05-07T11:48:24.474Z,43.50
2019-05-07T11:51:04.373Z,43.92
2019-05-07T11:53:33.630Z,43.31
2019-05-07T11:56:02.885Z,42.72
2019-05-07T11:58:32.654Z,42.32
2019-05-07T12:01:12.306Z,42.25
2019-05-07T12:03:42.948Z,41.89
2019-05-07T12:06:12.512Z,41.86
2019-05-07T12:08:49.793Z,41.21
2019-05-07T12:11:13.031Z,41.04
2019-05-07T12:13:42.753Z,42.20
2019-05-07T12:16:14.163Z,42.87
2019-05-07T12:18:43.223Z,42.54
2019-05-07T12:21:20.133Z,40.43
2019-05-07T12:23:43.361Z,41.60
2019-05-07T12:26:12.738Z,41.27
2019-05-07T12:28:42.034Z,40.72
2019-05-07T12:31:48.339Z,42.10
2019-05-07T12:34:22.912Z,41.55
2019-05-07T12:36:52.486Z,42.13
2019-05-07T12:39:22.024Z,43.87
2019-05-07T12:41:52.430Z,43.19
2019-05-07T12:44:22.215Z,41.73
2019-05-07T12:46:52.467Z,40.61
2019-05-07T12:49:22.208Z,40.52
2019-05-07T12:51:56.778Z,40.02
2019-05-07T12:54:44.897Z,40.09
2019-05-07T12:57:14.038Z,40.53
2019-05-07T12:59:43.235Z,39.48
2019-05-07T13:02:37.380Z,38.31
2019-05-07T13:04:58.054Z,38.70
2019-05-07T13:07:44.317Z,38.02
2019-05-07T13:10:13.565Z,39.01
2019-05-07T13:12:42.742Z,39.88
2019-05-07T13:15:24.102Z,39.42
2019-05-07T13:17:43.053Z,39.22
2019-05-07T13:20:12.393Z,39.97
2019-05-07T13:22:42.679Z,41.43
2019-05-07T13:25:12.871Z,41.50
2019-05-07T13:27:42.943Z,41.72
2019-05-07T13:30:14.352Z,40.76
2019-05-07T13:32:46.632Z,40.79
2019-05-07T13:35:16.087Z,38.43
2019-05-07T13:38:07.851Z,38.73
2019-05-07T13:40:55.162Z,36.04
2019-05-07T13:43:29.406Z,32.37
2019-05-07T13:46:03.078Z,30.90
2019-05-07T13:48:32.347Z,31.29
2019-05-07T13:51:02.161Z,33.68
2019-05-07T13:53:32.138Z,32.81
2019-05-07T13:56:02.198Z,30.64
2019-05-07T13:58:32.933Z,31.51
2019-05-07T14:01:27.559Z,33.82
2019-05-07T14:03:56.895Z,33.03
2019-05-07T14:06:43.036Z,33.04
2019-05-07T14:09:23.875Z,33.38
2019-05-07T14:11:52.861Z,35.45
2019-05-07T14:14:22.582Z,36.35
2019-05-07T14:16:53.013Z,36.65
2019-05-07T14:19:22.733Z,38.01
2019-05-07T14:21:52.526Z,38.50
2019-05-07T14:24:22.579Z,38.92
2019-05-07T14:26:52.838Z,40.26
2019-05-07T14:29:24.700Z,40.32
2019-05-07T14:32:18.207Z,39.01
2019-05-07T14:35:05.494Z,40.79
2019-05-07T14:37:38.064Z,40.00
2019-05-07T14:40:07.571Z,40.56
2019-05-07T14:42:42.144Z,39.63
2019-05-07T14:45:11.457Z,42.86
2019-05-07T14:47:44.402Z,40.42
2019-05-07T14:50:12.329Z,41.23
2019-05-07T14:52:43.253Z,42.12
2019-05-07T14:55:12.975Z,40.23
2019-05-07T14:57:42.291Z,40.14
2019-05-07T15:00:12.345Z,41.13
2019-05-07T15:02:42.108Z,41.72
2019-05-07T15:05:12.138Z,42.37
2019-05-07T15:07:41.608Z,41.38
2019-05-07T15:10:10.871Z,42.26
2019-05-07T15:12:40.044Z,42.22
2019-05-07T15:15:09.445Z,41.84
2019-05-07T15:18:09.836Z,41.57
2019-05-07T15:20:39.211Z,42.38
2019-05-07T15:23:27.323Z,43.40
2019-05-07T15:25:57.062Z,41.21
2019-05-07T15:28:26.261Z,39.89
2019-05-07T15:31:04.919Z,39.33
2019-05-07T15:33:34.086Z,39.52
2019-05-07T15:36:06.412Z,39.33
2019-05-07T15:38:34.464Z,39.33
2019-05-07T15:41:03.782Z,36.76
2019-05-07T15:43:32.977Z,35.01
2019-05-07T15:46:02.451Z,32.65
2019-05-07T15:48:32.618Z,31.53
2019-05-07T15:51:02.542Z,32.50
2019-05-07T15:53:55.681Z,32.26
2019-05-07T15:56:23.958Z,32.71
2019-05-07T15:58:52.207Z,30.76
2019-05-07T16:01:22.180Z,30.46
2019-05-07T16:03:54.392Z,29.87
2019-05-07T16:06:22.019Z,32.31
2019-05-07T16:08:53.598Z,33.98
2019-05-07T16:11:23.237Z,34.93
2019-05-07T16:14:12.610Z,35.24
2019-05-07T16:16:45.730Z,36.54
2019-05-07T16:20:53.624Z,39.14
2019-05-07T16:23:22.962Z,38.86
2019-05-07T16:25:52.831Z,40.88
2019-05-07T16:28:22.104Z,39.54
2019-05-07T16:30:52.138Z,40.02
2019-05-07T16:33:21.468Z,40.38
2019-05-07T16:35:50.750Z,40.42
2019-05-07T16:38:21.996Z,40.37
2019-05-07T16:40:52.195Z,39.64
2019-05-07T16:43:22.110Z,39.64
2019-05-07T16:45:51.840Z,39.10
2019-05-07T16:48:23.127Z,38.37
2019-05-07T16:50:52.326Z,39.80
2019-05-07T16:53:29.299Z,39.44
2019-05-07T16:55:52.699Z,39.70
2019-05-07T16:58:38.402Z,40.85
2019-05-07T17:01:09.127Z,42.15
2019-05-07T17:03:45.810Z,42.80
2019-05-07T17:06:14.987Z,43.48
2019-05-07T17:08:55.170Z,44.06
2019-05-07T17:11:24.350Z,44.29
2019-05-07T17:13:53.537Z,45.07
2019-05-07T17:16:22.965Z,44.88
2019-05-07T17:18:52.176Z,45.32
2019-05-07T17:21:21.852Z,45.02
2019-05-07T17:23:51.884Z,45.10
2019-05-07T17:26:23.184Z,45.17
2019-05-07T17:28:52.229Z,45.27
2019-05-07T17:31:22.891Z,45.90
2019-05-07T17:33:52.148Z,45.93
2019-05-07T17:36:22.403Z,46.51
2019-05-07T17:38:52.013Z,45.25
2019-05-07T17:41:26.840Z,45.35
2019-05-07T17:43:52.338Z,45.46
2019-05-07T17:46:21.886Z,44.59
2019-05-07T17:48:52.366Z,44.75
2019-05-07T17:51:42.090Z,45.64
2019-05-07T17:54:13.158Z,45.93
2019-05-07T17:56:42.994Z,45.16
2019-05-07T17:59:12.484Z,45.70
2019-05-07T18:02:02.676Z,46.66
2019-05-07T18:04:47.667Z,46.53
2019-05-07T18:07:05.184Z,46.76
2019-05-07T18:09:34.388Z,47.16
2019-05-07T18:12:03.820Z,47.27
2019-05-07T18:14:33.114Z,47.80
2019-05-07T18:17:14.320Z,48.09
2019-05-07T18:19:44.298Z,48.27
2019-05-07T18:22:13.647Z,48.04
2019-05-07T18:24:42.893Z,48.40
2019-05-07T18:27:18.570Z,48.29
2019-05-07T18:29:47.791Z,49.06
2019-05-07T18:32:17.052Z,49.22
2019-05-07T18:34:46.335Z,49.39
2019-05-07T18:37:15.623Z,49.78
2019-05-07T18:39:44.830Z,49.57
2019-05-07T18:42:14.142Z,50.35
2019-05-07T18:44:43.386Z,50.23
2019-05-07T18:47:13.000Z,50.71
2019-05-07T18:49:44.725Z,52.33
2019-05-07T18:52:13.341Z,53.30
2019-05-07T18:54:42.965Z,53.46
2019-05-07T18:57:12.291Z,53.24
2019-05-07T18:59:42.283Z,53.52
2019-05-07T19:02:11.938Z,54.25
2019-05-07T19:04:42.219Z,54.56
2019-05-07T19:07:13.210Z,54.36
2019-05-07T19:09:42.659Z,54.07
2019-05-07T19:12:13.470Z,53.83
2019-05-07T19:14:42.894Z,54.72
2019-05-07T19:17:12.294Z,54.77
2019-05-07T19:19:41.959Z,54.63
2019-05-07T19:22:13.587Z,55.70
2019-05-07T19:24:47.874Z,55.76
2019-05-07T19:27:15.789Z,55.89
2019-05-07T19:29:45.922Z,55.25
2019-05-07T19:32:15.999Z,55.19
2019-05-07T19:34:45.254Z,55.35
2019-05-07T19:37:14.619Z,55.36
2019-05-07T19:39:44.263Z,55.47
2019-05-07T19:42:16.134Z,55.38
2019-05-07T19:44:47.702Z,55.50
2019-05-07T19:47:17.576Z,56.19
2019-05-07T19:49:47.966Z,56.82
2019-05-07T19:52:18.091Z,56.91
2019-05-07T19:54:58.884Z,56.86
2019-05-07T19:57:23.383Z,56.68
2019-05-07T19:59:55.168Z,57.33
2019-05-07T20:02:32.001Z,57.81
2019-05-07T20:05:03.524Z,58.16
2019-05-07T20:07:33.101Z,58.04
2019-05-07T20:10:06.490Z,58.19
2019-05-07T20:12:38.657Z,58.47
2019-05-07T20:15:08.435Z,58.44
2019-05-07T20:17:37.772Z,58.79
2019-05-07T20:20:09.874Z,58.40
2019-05-07T20:22:39.317Z,59.17
2019-05-07T20:25:18.573Z,59.58
2019-05-07T20:27:43.175Z,60.16
2019-05-07T20:30:12.819Z,60.67
2019-05-07T20:32:42.797Z,61.13
2019-05-07T20:35:12.321Z,61.19
2019-05-07T20:37:42.109Z,61.23
2019-05-07T20:40:13.648Z,60.85
2019-05-07T20:42:42.964Z,60.95
2019-05-07T20:45:13.453Z,61.28
2019-05-07T20:47:43.070Z,61.29
2019-05-07T20:50:12.871Z,61.34
2019-05-07T20:52:42.139Z,61.59
2019-05-07T20:55:30.632Z,61.83
2019-05-07T20:57:54.309Z,61.82
2019-05-07T21:00:26.429Z,61.88
2019-05-07T21:03:13.699Z,62.34
2019-05-07T21:05:42.971Z,62.54
2019-05-07T21:08:12.259Z,62.81
2019-05-07T21:10:42.742Z,63.06
2019-05-07T21:13:26.999Z,63.04
2019-05-07T21:15:42.924Z,63.04
2019-05-07T21:18:13.206Z,63.36
2019-05-07T21:20:42.475Z,63.69
2019-05-07T21:23:12.338Z,63.92
2019-05-07T21:25:45.764Z,64.21
2019-05-07T21:28:12.649Z,64.53
2019-05-07T21:30:42.702Z,64.79
2019-05-07T21:33:12.155Z,65.15
2019-05-07T21:35:42.944Z,65.72
2019-05-07T21:38:12.785Z,66.31
2019-05-07T21:40:42.825Z,66.81
2019-05-07T21:43:14.149Z,67.02
2019-05-07T21:45:43.190Z,67.96
2019-05-07T21:48:13.763Z,68.39
2019-05-07T21:50:43.338Z,69.18
2019-05-07T21:53:22.883Z,69.31
2019-05-07T21:56:05.280Z,69.88
2019-05-07T21:58:43.712Z,70.50
2019-05-07T22:01:16.654Z,70.29
2019-05-07T22:03:47.734Z,70.88
2019-05-07T22:06:16.970Z,71.22
2019-05-07T22:08:46.111Z,71.48
2019-05-07T22:11:15.413Z,71.84
2019-05-07T22:13:44.596Z,72.22
2019-05-07T22:16:13.749Z,72.53
2019-05-07T22:18:43.023Z,73.02
2019-05-07T22:21:12.647Z,72.62
2019-05-07T22:23:42.779Z,72.76
2019-05-07T22:26:23.311Z,72.96
2019-05-07T22:28:43.240Z,73.83
2019-05-07T22:31:31.374Z,73.60
2019-05-07T22:34:12.941Z,73.07
2019-05-07T22:36:43.137Z,73.51
2019-05-07T22:39:12.702Z,74.32
2019-05-07T22:41:42.542Z,74.68
2019-05-07T22:44:12.134Z,74.51
2019-05-07T22:46:42.189Z,74.80
2019-05-07T22:49:12.261Z,75.59
2019-05-07T22:51:41.612Z,75.30
2019-05-07T22:54:11.858Z,75.63
2019-05-07T22:57:04.146Z,76.09
2019-05-07T22:59:33.323Z,76.40
2019-05-07T23:02:03.242Z,76.04
2019-05-07T23:04:33.846Z,76.61
2019-05-07T23:07:04.116Z,76.84
2019-05-07T23:09:33.394Z,76.82
2019-05-07T23:12:02.643Z,76.97
2019-05-07T23:14:32.984Z,76.59
2019-05-07T23:17:02.401Z,77.21
2019-05-07T23:19:32.705Z,77.55
2019-05-07T23:22:03.253Z,77.03
2019-05-07T23:24:32.473Z,76.93
2019-05-07T23:27:01.723Z,77.34
2019-05-07T23:29:33.006Z,78.00
2019-05-07T23:32:02.114Z,77.72
2019-05-07T23:34:32.594Z,77.98
2019-05-07T23:37:02.540Z,77.89
2019-05-07T23:39:33.888Z,77.87
2019-05-07T23:42:09.740Z,78.38
2019-05-07T23:44:38.944Z,78.64
2019-05-07T23:47:08.314Z,78.50
2019-05-07T23:49:37.510Z,78.80
2019-05-07T23:52:06.709Z,78.86
2019-05-07T23:54:36.022Z,78.57
2019-05-07T23:57:09.511Z,78.81
2019-05-07T23:59:36.120Z,79.12
